sensor_id;sensor_type;location;lat;lon;timestamp;P1;durP1;ratioP1;P2;durP2;ratioP2
64244;SDS011;50584;29.058;-110.966;2022-07-24T00:01:54;1.48;;;0.90;;
64244;SDS011;50584;29.058;-110.966;2022-07-24T00:04:19;9.05;;;1.27;;
64244;SDS011;50584;29.058;-110.966;2022-07-24T00:06:45;2.10;;;1.27;;
64244;SDS011;50584;29.058;-110.966;2022-07-24T00:09:11;5.68;;;1.27;;
64244;SDS011;50584;29.058;-110.966;2022-07-24T00:11:37;3.75;;;1.02;;
64244;SDS011;50584;29.058;-110.966;2022-07-24T00:14:03;2.83;;;1.40;;
64244;SDS011;50584;29.058;-110.966;2022-07-24T00:16:29;7.60;;;1.48;;
64244;SDS011;50584;29.058;-110.966;2022-07-24T00:18:54;3.72;;;1.33;;
64244;SDS011;50584;29.058;-110.966;2022-07-24T00:21:20;2.60;;;1.40;;
64244;SDS011;50584;29.058;-110.966;2022-07-24T00:23:46;3.38;;;1.10;;
64244;SDS011;50584;29.058;-110.966;2022-07-24T00:26:12;5.38;;;1.17;;
64244;SDS011;50584;29.058;-110.966;2022-07-24T00:28:38;6.82;;;1.33;;
64244;SDS011;50584;29.058;-110.966;2022-07-24T00:31:04;7.35;;;1.30;;
64244;SDS011;50584;29.058;-110.966;2022-07-24T00:33:30;2.58;;;1.10;;
64244;SDS011;50584;29.058;-110.966;2022-07-24T00:35:56;5.47;;;1.20;;
64244;SDS011;50584;29.058;-110.966;2022-07-24T00:38:22;2.30;;;1.23;;
64244;SDS011;50584;29.058;-110.966;2022-07-24T00:40:48;1.75;;;1.00;;
64244;SDS011;50584;29.058;-110.966;2022-07-24T00:43:13;2.25;;;0.90;;
64244;SDS011;50584;29.058;-110.966;2022-07-24T00:45:41;4.80;;;1.40;;
64244;SDS011;50584;29.058;-110.966;2022-07-24T00:48:07;9.52;;;1.35;;
64244;SDS011;50584;29.058;-110.966;2022-07-24T00:50:33;16.45;;;1.63;;
64244;SDS011;50584;29.058;-110.966;2022-07-24T00:52:59;6.32;;;1.23;;
64244;SDS011;50584;29.058;-110.966;2022-07-24T00:55:25;9.95;;;1.27;;
64244;SDS011;50584;29.058;-110.966;2022-07-24T00:57:51;3.53;;;1.20;;
64244;SDS011;50584;29.058;-110.966;2022-07-24T01:00:20;7.57;;;1.00;;
64244;SDS011;50584;29.058;-110.966;2022-07-24T01:02:47;7.60;;;1.13;;
64244;SDS011;50584;29.058;-110.966;2022-07-24T01:05:13;1.63;;;1.33;;
64244;SDS011;50584;29.058;-110.966;2022-07-24T01:07:39;3.53;;;0.77;;
64244;SDS011;50584;29.058;-110.966;2022-07-24T01:10:05;5.55;;;1.30;;
64244;SDS011;50584;29.058;-110.966;2022-07-24T01:12:35;1.20;;;1.02;;
64244;SDS011;50584;29.058;-110.966;2022-07-24T01:15:03;3.33;;;0.93;;
64244;SDS011;50584;29.058;-110.966;2022-07-24T01:17:29;3.47;;;1.30;;
64244;SDS011;50584;29.058;-110.966;2022-07-24T01:19:56;6.15;;;1.20;;
64244;SDS011;50584;29.058;-110.966;2022-07-24T01:22:22;7.65;;;1.30;;
64244;SDS011;50584;29.058;-110.966;2022-07-24T01:24:48;3.58;;;1.50;;
64244;SDS011;50584;29.058;-110.966;2022-07-24T01:27:14;14.80;;;1.60;;
64244;SDS011;50584;29.058;-110.966;2022-07-24T01:29:40;7.82;;;1.52;;
64244;SDS011;50584;29.058;-110.966;2022-07-24T01:32:06;6.57;;;1.75;;
64244;SDS011;50584;29.058;-110.966;2022-07-24T01:34:32;3.33;;;2.00;;
64244;SDS011;50584;29.058;-110.966;2022-07-24T01:36:58;7.53;;;1.33;;
64244;SDS011;50584;29.058;-110.966;2022-07-24T01:39:24;4.68;;;1.48;;
64244;SDS011;50584;29.058;-110.966;2022-07-24T01:41:49;4.93;;;2.55;;
64244;SDS011;50584;29.058;-110.966;2022-07-24T01:44:15;6.55;;;2.03;;
64244;SDS011;50584;29.058;-110.966;2022-07-24T01:46:41;10.48;;;2.35;;
64244;SDS011;50584;29.058;-110.966;2022-07-24T01:49:07;10.57;;;1.85;;
64244;SDS011;50584;29.058;-110.966;2022-07-24T01:51:33;4.03;;;1.58;;
64244;SDS011;50584;29.058;-110.966;2022-07-24T01:53:59;10.05;;;1.25;;
64244;SDS011;50584;29.058;-110.966;2022-07-24T01:56:25;6.90;;;1.60;;
64244;SDS011;50584;29.058;-110.966;2022-07-24T01:58:51;9.68;;;1.88;;
64244;SDS011;50584;29.058;-110.966;2022-07-24T02:01:16;4.55;;;1.00;;
64244;SDS011;50584;29.058;-110.966;2022-07-24T02:03:42;5.40;;;1.40;;
64244;SDS011;50584;29.058;-110.966;2022-07-24T02:06:08;9.93;;;1.00;;
64244;SDS011;50584;29.058;-110.966;2022-07-24T02:08:34;7.28;;;1.20;;
64244;SDS011;50584;29.058;-110.966;2022-07-24T02:11:00;4.65;;;1.38;;
64244;SDS011;50584;29.058;-110.966;2022-07-24T02:13:25;4.60;;;1.38;;
64244;SDS011;50584;29.058;-110.966;2022-07-24T02:15:51;2.38;;;1.20;;
64244;SDS011;50584;29.058;-110.966;2022-07-24T02:18:18;3.38;;;1.48;;
64244;SDS011;50584;29.058;-110.966;2022-07-24T02:20:43;3.53;;;1.05;;
64244;SDS011;50584;29.058;-110.966;2022-07-24T02:23:09;2.75;;;1.30;;
64244;SDS011;50584;29.058;-110.966;2022-07-24T02:25:35;5.10;;;1.55;;
64244;SDS011;50584;29.058;-110.966;2022-07-24T02:28:01;1.75;;;1.10;;
64244;SDS011;50584;29.058;-110.966;2022-07-24T02:30:27;7.40;;;1.38;;
64244;SDS011;50584;29.058;-110.966;2022-07-24T02:32:53;2.08;;;1.17;;
64244;SDS011;50584;29.058;-110.966;2022-07-24T02:35:18;1.52;;;1.20;;
64244;SDS011;50584;29.058;-110.966;2022-07-24T02:37:45;4.68;;;1.80;;
64244;SDS011;50584;29.058;-110.966;2022-07-24T02:40:11;5.55;;;1.30;;
64244;SDS011;50584;29.058;-110.966;2022-07-24T02:42:37;4.65;;;1.48;;
64244;SDS011;50584;29.058;-110.966;2022-07-24T02:45:04;2.40;;;1.48;;
64244;SDS011;50584;29.058;-110.966;2022-07-24T02:47:30;4.00;;;1.30;;
64244;SDS011;50584;29.058;-110.966;2022-07-24T02:49:56;5.10;;;2.00;;
64244;SDS011;50584;29.058;-110.966;2022-07-24T02:52:21;7.07;;;1.20;;
64244;SDS011;50584;29.058;-110.966;2022-07-24T02:54:47;3.20;;;1.30;;
64244;SDS011;50584;29.058;-110.966;2022-07-24T02:57:13;4.78;;;1.30;;
64244;SDS011;50584;29.058;-110.966;2022-07-24T02:59:39;8.00;;;1.20;;
64244;SDS011;50584;29.058;-110.966;2022-07-24T03:02:05;4.78;;;1.50;;
64244;SDS011;50584;29.058;-110.966;2022-07-24T03:04:31;5.55;;;1.23;;
64244;SDS011;50584;29.058;-110.966;2022-07-24T03:06:57;8.82;;;1.48;;
64244;SDS011;50584;29.058;-110.966;2022-07-24T03:09:23;4.97;;;1.45;;
64244;SDS011;50584;29.058;-110.966;2022-07-24T03:11:49;5.60;;;1.83;;
64244;SDS011;50584;29.058;-110.966;2022-07-24T03:14:14;4.90;;;1.30;;
64244;SDS011;50584;29.058;-110.966;2022-07-24T03:16:40;10.52;;;1.30;;
64244;SDS011;50584;29.058;-110.966;2022-07-24T03:19:06;13.40;;;1.50;;
64244;SDS011;50584;29.058;-110.966;2022-07-24T03:21:32;9.13;;;1.40;;
64244;SDS011;50584;29.058;-110.966;2022-07-24T03:23:58;4.55;;;1.25;;
64244;SDS011;50584;29.058;-110.966;2022-07-24T03:26:24;14.38;;;1.70;;
64244;SDS011;50584;29.058;-110.966;2022-07-24T03:28:50;6.20;;;1.40;;
64244;SDS011;50584;29.058;-110.966;2022-07-24T03:31:15;4.35;;;1.20;;
64244;SDS011;50584;29.058;-110.966;2022-07-24T03:33:41;1.63;;;1.23;;
64244;SDS011;50584;29.058;-110.966;2022-07-24T03:36:07;3.30;;;1.20;;
64244;SDS011;50584;29.058;-110.966;2022-07-24T03:38:33;1.98;;;1.40;;
64244;SDS011;50584;29.058;-110.966;2022-07-24T03:40:59;4.50;;;1.58;;
64244;SDS011;50584;29.058;-110.966;2022-07-24T03:43:25;1.50;;;1.40;;
64244;SDS011;50584;29.058;-110.966;2022-07-24T03:45:51;1.83;;;1.50;;
64244;SDS011;50584;29.058;-110.966;2022-07-24T03:48:17;2.35;;;1.45;;
64244;SDS011;50584;29.058;-110.966;2022-07-24T03:50:43;4.70;;;1.65;;
64244;SDS011;50584;29.058;-110.966;2022-07-24T03:53:08;3.47;;;1.40;;
64244;SDS011;50584;29.058;-110.966;2022-07-24T03:55:34;9.15;;;1.92;;
64244;SDS011;50584;29.058;-110.966;2022-07-24T03:58:01;4.47;;;1.75;;
64244;SDS011;50584;29.058;-110.966;2022-07-24T04:00:27;12.15;;;1.83;;
64244;SDS011;50584;29.058;-110.966;2022-07-24T04:02:52;2.35;;;1.50;;
64244;SDS011;50584;29.058;-110.966;2022-07-24T04:05:18;4.55;;;1.52;;
64244;SDS011;50584;29.058;-110.966;2022-07-24T04:07:44;2.40;;;1.50;;
64244;SDS011;50584;29.058;-110.966;2022-07-24T04:10:10;3.25;;;1.55;;
64244;SDS011;50584;29.058;-110.966;2022-07-24T04:12:36;2.15;;;1.58;;
64244;SDS011;50584;29.058;-110.966;2022-07-24T04:15:02;2.80;;;1.50;;
64244;SDS011;50584;29.058;-110.966;2022-07-24T04:17:28;5.20;;;1.70;;
64244;SDS011;50584;29.058;-110.966;2022-07-24T04:19:53;2.95;;;1.83;;
64244;SDS011;50584;29.058;-110.966;2022-07-24T04:22:19;8.38;;;2.08;;
64244;SDS011;50584;29.058;-110.966;2022-07-24T04:24:45;2.17;;;1.70;;
64244;SDS011;50584;29.058;-110.966;2022-07-24T04:27:11;3.60;;;2.00;;
64244;SDS011;50584;29.058;-110.966;2022-07-24T04:29:37;3.10;;;1.98;;
64244;SDS011;50584;29.058;-110.966;2022-07-24T04:32:02;1.63;;;1.52;;
64244;SDS011;50584;29.058;-110.966;2022-07-24T04:34:28;8.60;;;2.10;;
64244;SDS011;50584;29.058;-110.966;2022-07-24T04:36:54;1.67;;;1.58;;
64244;SDS011;50584;29.058;-110.966;2022-07-24T04:39:20;2.13;;;1.67;;
64244;SDS011;50584;29.058;-110.966;2022-07-24T04:41:46;6.90;;;2.30;;
64244;SDS011;50584;29.058;-110.966;2022-07-24T04:44:11;6.32;;;2.97;;
64244;SDS011;50584;29.058;-110.966;2022-07-24T04:46:37;8.75;;;2.33;;
64244;SDS011;50584;29.058;-110.966;2022-07-24T04:49:03;10.85;;;2.67;;
64244;SDS011;50584;29.058;-110.966;2022-07-24T04:51:29;12.05;;;3.45;;
64244;SDS011;50584;29.058;-110.966;2022-07-24T04:53:55;8.52;;;2.88;;
64244;SDS011;50584;29.058;-110.966;2022-07-24T04:56:21;15.52;;;3.20;;
64244;SDS011;50584;29.058;-110.966;2022-07-24T04:58:46;6.00;;;1.95;;
64244;SDS011;50584;29.058;-110.966;2022-07-24T05:01:13;4.82;;;2.13;;
64244;SDS011;50584;29.058;-110.966;2022-07-24T05:03:39;4.97;;;1.70;;
64244;SDS011;50584;29.058;-110.966;2022-07-24T05:06:05;10.60;;;3.35;;
64244;SDS011;50584;29.058;-110.966;2022-07-24T05:08:31;9.52;;;3.25;;
64244;SDS011;50584;29.058;-110.966;2022-07-24T05:10:56;7.15;;;1.95;;
64244;SDS011;50584;29.058;-110.966;2022-07-24T05:13:22;4.28;;;1.88;;
64244;SDS011;50584;29.058;-110.966;2022-07-24T05:15:48;4.53;;;2.60;;
64244;SDS011;50584;29.058;-110.966;2022-07-24T05:18:14;2.83;;;2.00;;
64244;SDS011;50584;29.058;-110.966;2022-07-24T05:20:39;4.40;;;2.40;;
64244;SDS011;50584;29.058;-110.966;2022-07-24T05:23:05;6.78;;;2.28;;
64244;SDS011;50584;29.058;-110.966;2022-07-24T05:25:31;4.88;;;1.73;;
64244;SDS011;50584;29.058;-110.966;2022-07-24T05:27:57;9.65;;;2.80;;
64244;SDS011;50584;29.058;-110.966;2022-07-24T05:30:23;13.20;;;3.58;;
64244;SDS011;50584;29.058;-110.966;2022-07-24T05:32:49;7.28;;;2.53;;
64244;SDS011;50584;29.058;-110.966;2022-07-24T05:35:14;6.38;;;2.15;;
64244;SDS011;50584;29.058;-110.966;2022-07-24T05:37:40;9.07;;;2.65;;
64244;SDS011;50584;29.058;-110.966;2022-07-24T05:40:06;8.05;;;2.22;;
64244;SDS011;50584;29.058;-110.966;2022-07-24T05:42:32;14.77;;;2.80;;
64244;SDS011;50584;29.058;-110.966;2022-07-24T05:44:58;8.95;;;2.33;;
64244;SDS011;50584;29.058;-110.966;2022-07-24T05:47:24;5.95;;;2.00;;
64244;SDS011;50584;29.058;-110.966;2022-07-24T05:49:50;7.28;;;2.55;;
64244;SDS011;50584;29.058;-110.966;2022-07-24T05:52:15;4.10;;;1.80;;
64244;SDS011;50584;29.058;-110.966;2022-07-24T05:54:41;8.10;;;2.22;;
64244;SDS011;50584;29.058;-110.966;2022-07-24T05:57:07;6.15;;;2.20;;
64244;SDS011;50584;29.058;-110.966;2022-07-24T05:59:33;3.95;;;2.00;;
64244;SDS011;50584;29.058;-110.966;2022-07-24T06:01:59;7.05;;;1.92;;
64244;SDS011;50584;29.058;-110.966;2022-07-24T06:04:27;5.82;;;2.50;;
64244;SDS011;50584;29.058;-110.966;2022-07-24T06:06:52;8.73;;;2.28;;
64244;SDS011;50584;29.058;-110.966;2022-07-24T06:09:18;5.82;;;1.95;;
64244;SDS011;50584;29.058;-110.966;2022-07-24T06:11:44;5.32;;;2.30;;
64244;SDS011;50584;29.058;-110.966;2022-07-24T06:14:10;10.80;;;2.38;;
64244;SDS011;50584;29.058;-110.966;2022-07-24T06:16:36;6.28;;;1.95;;
64244;SDS011;50584;29.058;-110.966;2022-07-24T06:19:01;8.50;;;2.20;;
64244;SDS011;50584;29.058;-110.966;2022-07-24T06:21:27;8.50;;;2.40;;
64244;SDS011;50584;29.058;-110.966;2022-07-24T06:23:53;3.97;;;1.98;;
64244;SDS011;50584;29.058;-110.966;2022-07-24T06:26:19;5.00;;;2.10;;
64244;SDS011;50584;29.058;-110.966;2022-07-24T06:28:45;3.17;;;1.98;;
64244;SDS011;50584;29.058;-110.966;2022-07-24T06:31:10;6.30;;;1.83;;
64244;SDS011;50584;29.058;-110.966;2022-07-24T06:33:36;2.67;;;2.10;;
64244;SDS011;50584;29.058;-110.966;2022-07-24T06:36:02;7.32;;;2.20;;
64244;SDS011;50584;29.058;-110.966;2022-07-24T06:38:28;6.13;;;2.33;;
64244;SDS011;50584;29.058;-110.966;2022-07-24T06:40:54;10.15;;;2.25;;
64244;SDS011;50584;29.058;-110.966;2022-07-24T06:43:20;6.15;;;2.15;;
64244;SDS011;50584;29.058;-110.966;2022-07-24T06:45:46;8.82;;;2.22;;
64244;SDS011;50584;29.058;-110.966;2022-07-24T06:48:12;13.00;;;2.10;;
64244;SDS011;50584;29.058;-110.966;2022-07-24T06:50:38;4.75;;;2.28;;
64244;SDS011;50584;29.058;-110.966;2022-07-24T06:53:04;4.63;;;2.35;;
64244;SDS011;50584;29.058;-110.966;2022-07-24T06:55:29;7.45;;;2.20;;
64244;SDS011;50584;29.058;-110.966;2022-07-24T06:57:55;18.38;;;3.08;;
64244;SDS011;50584;29.058;-110.966;2022-07-24T07:00:21;6.20;;;2.30;;
64244;SDS011;50584;29.058;-110.966;2022-07-24T07:02:47;7.82;;;2.40;;
64244;SDS011;50584;29.058;-110.966;2022-07-24T07:05:13;6.05;;;1.73;;
64244;SDS011;50584;29.058;-110.966;2022-07-24T07:07:38;4.38;;;2.13;;
64244;SDS011;50584;29.058;-110.966;2022-07-24T07:10:05;2.05;;;1.88;;
64244;SDS011;50584;29.058;-110.966;2022-07-24T07:12:31;5.25;;;2.28;;
64244;SDS011;50584;29.058;-110.966;2022-07-24T07:14:57;2.88;;;2.20;;
64244;SDS011;50584;29.058;-110.966;2022-07-24T07:17:25;4.13;;;1.90;;
64244;SDS011;50584;29.058;-110.966;2022-07-24T07:19:50;5.07;;;2.40;;
64244;SDS011;50584;29.058;-110.966;2022-07-24T07:22:16;2.95;;;2.58;;
64244;SDS011;50584;29.058;-110.966;2022-07-24T07:24:42;27.60;;;2.50;;
64244;SDS011;50584;29.058;-110.966;2022-07-24T07:27:08;7.78;;;2.00;;
64244;SDS011;50584;29.058;-110.966;2022-07-24T07:29:34;7.95;;;2.10;;
64244;SDS011;50584;29.058;-110.966;2022-07-24T07:31:59;4.70;;;2.30;;
64244;SDS011;50584;29.058;-110.966;2022-07-24T07:34:25;8.93;;;2.08;;
64244;SDS011;50584;29.058;-110.966;2022-07-24T07:36:52;3.83;;;2.33;;
64244;SDS011;50584;29.058;-110.966;2022-07-24T07:39:18;7.80;;;2.33;;
64244;SDS011;50584;29.058;-110.966;2022-07-24T07:41:44;7.00;;;2.50;;
64244;SDS011;50584;29.058;-110.966;2022-07-24T07:44:09;3.92;;;2.38;;
64244;SDS011;50584;29.058;-110.966;2022-07-24T07:46:35;3.78;;;2.38;;
64244;SDS011;50584;29.058;-110.966;2022-07-24T07:49:01;8.88;;;2.80;;
64244;SDS011;50584;29.058;-110.966;2022-07-24T07:51:27;9.48;;;2.35;;
64244;SDS011;50584;29.058;-110.966;2022-07-24T07:53:53;6.40;;;2.30;;
64244;SDS011;50584;29.058;-110.966;2022-07-24T07:56:19;7.75;;;2.60;;
64244;SDS011;50584;29.058;-110.966;2022-07-24T07:58:45;11.70;;;2.90;;
64244;SDS011;50584;29.058;-110.966;2022-07-24T08:01:11;5.18;;;2.50;;
64244;SDS011;50584;29.058;-110.966;2022-07-24T08:03:37;4.80;;;2.08;;
64244;SDS011;50584;29.058;-110.966;2022-07-24T08:06:03;6.82;;;2.70;;
64244;SDS011;50584;29.058;-110.966;2022-07-24T08:08:30;11.82;;;2.78;;
64244;SDS011;50584;29.058;-110.966;2022-07-24T08:10:55;7.43;;;2.90;;
64244;SDS011;50584;29.058;-110.966;2022-07-24T08:13:21;5.90;;;2.65;;
64244;SDS011;50584;29.058;-110.966;2022-07-24T08:15:47;7.97;;;2.67;;
64244;SDS011;50584;29.058;-110.966;2022-07-24T08:18:13;12.07;;;3.17;;
64244;SDS011;50584;29.058;-110.966;2022-07-24T08:20:39;9.98;;;2.95;;
64244;SDS011;50584;29.058;-110.966;2022-07-24T08:23:05;11.68;;;2.83;;
64244;SDS011;50584;29.058;-110.966;2022-07-24T08:25:30;8.63;;;2.70;;
64244;SDS011;50584;29.058;-110.966;2022-07-24T08:27:56;9.45;;;3.40;;
64244;SDS011;50584;29.058;-110.966;2022-07-24T08:30:22;8.13;;;2.55;;
64244;SDS011;50584;29.058;-110.966;2022-07-24T08:32:50;8.20;;;2.45;;
64244;SDS011;50584;29.058;-110.966;2022-07-24T08:35:16;10.38;;;3.45;;
64244;SDS011;50584;29.058;-110.966;2022-07-24T08:37:42;6.55;;;3.13;;
64244;SDS011;50584;29.058;-110.966;2022-07-24T08:40:08;11.18;;;3.35;;
64244;SDS011;50584;29.058;-110.966;2022-07-24T08:42:35;8.73;;;3.03;;
64244;SDS011;50584;29.058;-110.966;2022-07-24T08:45:01;9.48;;;3.03;;
64244;SDS011;50584;29.058;-110.966;2022-07-24T08:47:27;7.28;;;2.95;;
64244;SDS011;50584;29.058;-110.966;2022-07-24T08:49:54;9.18;;;3.10;;
64244;SDS011;50584;29.058;-110.966;2022-07-24T08:52:21;8.18;;;2.65;;
64244;SDS011;50584;29.058;-110.966;2022-07-24T08:54:47;8.05;;;3.60;;
64244;SDS011;50584;29.058;-110.966;2022-07-24T08:57:14;6.88;;;2.75;;
64244;SDS011;50584;29.058;-110.966;2022-07-24T08:59:40;9.45;;;3.03;;
64244;SDS011;50584;29.058;-110.966;2022-07-24T09:02:06;10.23;;;3.45;;
64244;SDS011;50584;29.058;-110.966;2022-07-24T09:04:35;6.32;;;3.00;;
64244;SDS011;50584;29.058;-110.966;2022-07-24T09:07:03;9.53;;;2.70;;
64244;SDS011;50584;29.058;-110.966;2022-07-24T09:09:30;7.20;;;2.95;;
64244;SDS011;50584;29.058;-110.966;2022-07-24T09:12:05;6.10;;;2.88;;
64244;SDS011;50584;29.058;-110.966;2022-07-24T09:14:32;5.85;;;3.15;;
64244;SDS011;50584;29.058;-110.966;2022-07-24T09:17:02;8.38;;;2.95;;
64244;SDS011;50584;29.058;-110.966;2022-07-24T09:19:29;6.40;;;2.78;;
64244;SDS011;50584;29.058;-110.966;2022-07-24T09:21:54;11.07;;;2.50;;
64244;SDS011;50584;29.058;-110.966;2022-07-24T09:24:20;11.48;;;2.58;;
64244;SDS011;50584;29.058;-110.966;2022-07-24T09:26:51;7.93;;;2.78;;
64244;SDS011;50584;29.058;-110.966;2022-07-24T09:34:21;7.03;;;2.70;;
64244;SDS011;50584;29.058;-110.966;2022-07-24T09:36:57;11.50;;;3.33;;
64244;SDS011;50584;29.058;-110.966;2022-07-24T09:39:23;7.47;;;2.90;;
64244;SDS011;50584;29.058;-110.966;2022-07-24T09:41:54;7.03;;;2.53;;
64244;SDS011;50584;29.058;-110.966;2022-07-24T09:44:20;11.48;;;3.17;;
64244;SDS011;50584;29.058;-110.966;2022-07-24T09:46:47;9.13;;;2.53;;
64244;SDS011;50584;29.058;-110.966;2022-07-24T09:49:20;7.68;;;2.60;;
64244;SDS011;50584;29.058;-110.966;2022-07-24T09:54:33;10.60;;;3.42;;
64244;SDS011;50584;29.058;-110.966;2022-07-24T09:59:48;10.15;;;3.20;;
64244;SDS011;50584;29.058;-110.966;2022-07-24T10:02:15;9.57;;;2.90;;
64244;SDS011;50584;29.058;-110.966;2022-07-24T10:04:41;12.13;;;3.90;;
64244;SDS011;50584;29.058;-110.966;2022-07-24T10:07:11;12.00;;;3.05;;
64244;SDS011;50584;29.058;-110.966;2022-07-24T10:09:40;14.83;;;3.53;;
64244;SDS011;50584;29.058;-110.966;2022-07-24T10:12:06;7.57;;;3.15;;
64244;SDS011;50584;29.058;-110.966;2022-07-24T10:14:36;11.77;;;3.13;;
64244;SDS011;50584;29.058;-110.966;2022-07-24T10:17:04;10.27;;;3.03;;
64244;SDS011;50584;29.058;-110.966;2022-07-24T10:19:34;11.95;;;3.10;;
64244;SDS011;50584;29.058;-110.966;2022-07-24T10:22:03;11.27;;;3.88;;
64244;SDS011;50584;29.058;-110.966;2022-07-24T10:29:47;16.13;;;2.63;;
64244;SDS011;50584;29.058;-110.966;2022-07-24T10:32:13;10.55;;;3.50;;
64244;SDS011;50584;29.058;-110.966;2022-07-24T10:35:22;9.20;;;2.90;;
64244;SDS011;50584;29.058;-110.966;2022-07-24T10:40:20;12.93;;;3.10;;
64244;SDS011;50584;29.058;-110.966;2022-07-24T10:45:35;11.05;;;3.08;;
64244;SDS011;50584;29.058;-110.966;2022-07-24T10:56:14;19.63;;;3.22;;
64244;SDS011;50584;29.058;-110.966;2022-07-24T10:58:57;8.93;;;2.88;;
64244;SDS011;50584;29.058;-110.966;2022-07-24T11:03:55;13.55;;;2.90;;
64244;SDS011;50584;29.058;-110.966;2022-07-24T11:06:37;17.60;;;3.22;;
64244;SDS011;50584;29.058;-110.966;2022-07-24T11:09:03;17.95;;;3.28;;
64244;SDS011;50584;29.058;-110.966;2022-07-24T11:11:29;12.15;;;3.17;;
64244;SDS011;50584;29.058;-110.966;2022-07-24T11:13:55;11.18;;;2.70;;
64244;SDS011;50584;29.058;-110.966;2022-07-24T11:16:23;12.23;;;3.03;;
64244;SDS011;50584;29.058;-110.966;2022-07-24T11:26:59;14.25;;;3.42;;
64244;SDS011;50584;29.058;-110.966;2022-07-24T11:29:30;8.85;;;2.63;;
64244;SDS011;50584;29.058;-110.966;2022-07-24T11:34:30;8.75;;;3.03;;
64244;SDS011;50584;29.058;-110.966;2022-07-24T11:36:56;14.60;;;3.05;;
64244;SDS011;50584;29.058;-110.966;2022-07-24T11:39:26;10.80;;;2.80;;
64244;SDS011;50584;29.058;-110.966;2022-07-24T11:44:22;6.15;;;2.47;;
64244;SDS011;50584;29.058;-110.966;2022-07-24T11:46:48;9.07;;;3.35;;
64244;SDS011;50584;29.058;-110.966;2022-07-24T11:49:14;10.07;;;3.00;;
64244;SDS011;50584;29.058;-110.966;2022-07-24T11:51:41;5.90;;;2.95;;
64244;SDS011;50584;29.058;-110.966;2022-07-24T11:54:07;6.00;;;2.80;;
64244;SDS011;50584;29.058;-110.966;2022-07-24T11:56:33;7.63;;;2.70;;
64244;SDS011;50584;29.058;-110.966;2022-07-24T11:58:59;16.17;;;3.08;;
64244;SDS011;50584;29.058;-110.966;2022-07-24T12:01:25;6.15;;;2.67;;
64244;SDS011;50584;29.058;-110.966;2022-07-24T12:03:51;11.30;;;3.17;;
64244;SDS011;50584;29.058;-110.966;2022-07-24T12:06:20;8.15;;;3.03;;
64244;SDS011;50584;29.058;-110.966;2022-07-24T12:08:46;8.95;;;2.83;;
64244;SDS011;50584;29.058;-110.966;2022-07-24T12:11:19;9.05;;;3.50;;
64244;SDS011;50584;29.058;-110.966;2022-07-24T12:13:45;7.68;;;2.70;;
64244;SDS011;50584;29.058;-110.966;2022-07-24T12:16:10;6.47;;;2.60;;
64244;SDS011;50584;29.058;-110.966;2022-07-24T12:18:36;11.75;;;3.55;;
64244;SDS011;50584;29.058;-110.966;2022-07-24T12:21:02;5.90;;;2.78;;
64244;SDS011;50584;29.058;-110.966;2022-07-24T12:23:29;14.25;;;3.10;;
64244;SDS011;50584;29.058;-110.966;2022-07-24T12:25:55;11.45;;;2.90;;
64244;SDS011;50584;29.058;-110.966;2022-07-24T12:28:22;5.97;;;2.75;;
64244;SDS011;50584;29.058;-110.966;2022-07-24T12:30:48;9.85;;;3.05;;
64244;SDS011;50584;29.058;-110.966;2022-07-24T12:38:31;11.50;;;2.80;;
64244;SDS011;50584;29.058;-110.966;2022-07-24T12:41:05;6.32;;;2.95;;
64244;SDS011;50584;29.058;-110.966;2022-07-24T12:43:31;14.82;;;3.45;;
64244;SDS011;50584;29.058;-110.966;2022-07-24T12:46:07;8.02;;;3.20;;
64244;SDS011;50584;29.058;-110.966;2022-07-24T12:48:33;16.40;;;3.30;;
64244;SDS011;50584;29.058;-110.966;2022-07-24T12:53:25;13.13;;;3.30;;
64244;SDS011;50584;29.058;-110.966;2022-07-24T12:56:05;16.13;;;3.50;;
64244;SDS011;50584;29.058;-110.966;2022-07-24T12:58:51;11.20;;;3.27;;
64244;SDS011;50584;29.058;-110.966;2022-07-24T13:01:17;9.48;;;2.97;;
64244;SDS011;50584;29.058;-110.966;2022-07-24T13:03:49;15.82;;;3.60;;
64244;SDS011;50584;29.058;-110.966;2022-07-24T13:06:15;19.33;;;4.03;;
64244;SDS011;50584;29.058;-110.966;2022-07-24T13:08:41;21.27;;;3.38;;
64244;SDS011;50584;29.058;-110.966;2022-07-24T13:11:07;17.35;;;3.08;;
64244;SDS011;50584;29.058;-110.966;2022-07-24T13:13:32;16.00;;;2.75;;
64244;SDS011;50584;29.058;-110.966;2022-07-24T13:15:58;13.10;;;2.70;;
64244;SDS011;50584;29.058;-110.966;2022-07-24T13:18:25;7.20;;;3.03;;
64244;SDS011;50584;29.058;-110.966;2022-07-24T13:20:50;11.88;;;3.22;;
64244;SDS011;50584;29.058;-110.966;2022-07-24T13:23:16;12.13;;;3.10;;
64244;SDS011;50584;29.058;-110.966;2022-07-24T13:25:42;13.20;;;2.70;;
64244;SDS011;50584;29.058;-110.966;2022-07-24T13:28:10;12.80;;;3.22;;
64244;SDS011;50584;29.058;-110.966;2022-07-24T13:30:36;10.70;;;3.40;;
64244;SDS011;50584;29.058;-110.966;2022-07-24T13:33:01;14.88;;;3.40;;
64244;SDS011;50584;29.058;-110.966;2022-07-24T13:35:27;7.10;;;2.75;;
64244;SDS011;50584;29.058;-110.966;2022-07-24T13:37:53;10.55;;;3.10;;
64244;SDS011;50584;29.058;-110.966;2022-07-24T13:40:19;13.30;;;3.13;;
64244;SDS011;50584;29.058;-110.966;2022-07-24T13:42:45;8.68;;;2.97;;
64244;SDS011;50584;29.058;-110.966;2022-07-24T13:45:11;12.35;;;3.13;;
64244;SDS011;50584;29.058;-110.966;2022-07-24T13:47:36;13.43;;;2.83;;
64244;SDS011;50584;29.058;-110.966;2022-07-24T13:50:02;6.30;;;2.80;;
64244;SDS011;50584;29.058;-110.966;2022-07-24T13:52:28;12.50;;;2.97;;
64244;SDS011;50584;29.058;-110.966;2022-07-24T13:54:54;6.13;;;2.85;;
64244;SDS011;50584;29.058;-110.966;2022-07-24T13:57:20;7.07;;;2.80;;
64244;SDS011;50584;29.058;-110.966;2022-07-24T13:59:46;12.90;;;3.05;;
64244;SDS011;50584;29.058;-110.966;2022-07-24T14:02:11;12.82;;;2.85;;
64244;SDS011;50584;29.058;-110.966;2022-07-24T14:04:40;14.73;;;2.97;;
64244;SDS011;50584;29.058;-110.966;2022-07-24T14:07:05;7.55;;;3.05;;
64244;SDS011;50584;29.058;-110.966;2022-07-24T14:09:32;8.98;;;3.13;;
64244;SDS011;50584;29.058;-110.966;2022-07-24T14:11:58;15.23;;;3.50;;
64244;SDS011;50584;29.058;-110.966;2022-07-24T14:14:24;7.82;;;2.92;;
64244;SDS011;50584;29.058;-110.966;2022-07-24T14:16:49;12.60;;;3.05;;
64244;SDS011;50584;29.058;-110.966;2022-07-24T14:19:15;8.63;;;3.53;;
64244;SDS011;50584;29.058;-110.966;2022-07-24T14:21:41;16.35;;;3.30;;
64244;SDS011;50584;29.058;-110.966;2022-07-24T14:24:12;11.25;;;3.00;;
64244;SDS011;50584;29.058;-110.966;2022-07-24T14:26:38;9.95;;;3.20;;
64244;SDS011;50584;29.058;-110.966;2022-07-24T14:29:04;12.45;;;3.85;;
64244;SDS011;50584;29.058;-110.966;2022-07-24T14:31:30;9.45;;;2.90;;
64244;SDS011;50584;29.058;-110.966;2022-07-24T14:33:56;11.52;;;3.47;;
64244;SDS011;50584;29.058;-110.966;2022-07-24T14:36:22;12.55;;;2.78;;
64244;SDS011;50584;29.058;-110.966;2022-07-24T14:38:47;9.95;;;2.85;;
64244;SDS011;50584;29.058;-110.966;2022-07-24T14:41:13;7.93;;;2.88;;
64244;SDS011;50584;29.058;-110.966;2022-07-24T14:43:39;10.45;;;2.85;;
64244;SDS011;50584;29.058;-110.966;2022-07-24T14:46:05;8.13;;;2.72;;
64244;SDS011;50584;29.058;-110.966;2022-07-24T14:48:31;10.43;;;3.25;;
64244;SDS011;50584;29.058;-110.966;2022-07-24T14:50:56;15.77;;;3.60;;
64244;SDS011;50584;29.058;-110.966;2022-07-24T14:53:22;14.82;;;3.92;;
64244;SDS011;50584;29.058;-110.966;2022-07-24T14:55:48;11.45;;;3.00;;